sensor_id;sensor_type;location;lat;lon;timestamp;pressure;altitude;pressure_sealevel;temperature;humidity
39729;BME280;25402;42.004;23.088;2023-05-23T00:00:20;97185.38;;;12.10;48.47
39729;BME280;25402;42.004;23.088;2023-05-23T00:02:48;97184.72;;;12.08;48.49
39729;BME280;25402;42.004;23.088;2023-05-23T00:05:15;97187.00;;;12.05;48.34
39729;BME280;25402;42.004;23.088;2023-05-23T00:07:42;97182.81;;;12.02;48.65
39729;BME280;25402;42.004;23.088;2023-05-23T00:10:10;97165.03;;;11.87;48.46
39729;BME280;25402;42.004;23.088;2023-05-23T00:12:37;97182.81;;;11.96;48.26
39729;BME280;25402;42.004;23.088;2023-05-23T00:15:08;97186.97;;;11.98;47.56
39729;BME280;25402;42.004;23.088;2023-05-23T00:17:36;97187.41;;;11.95;47.63
39729;BME280;25402;42.004;23.088;2023-05-23T00:20:04;97182.19;;;11.94;47.22
39729;BME280;25402;42.004;23.088;2023-05-23T00:22:34;97182.78;;;11.89;47.30
39729;BME280;25402;42.004;23.088;2023-05-23T00:25:01;97164.34;;;11.71;47.52
39729;BME280;25402;42.004;23.088;2023-05-23T00:27:28;97142.72;;;11.37;47.35
39729;BME280;25402;42.004;23.088;2023-05-23T00:29:55;97197.03;;;11.63;47.54
39729;BME280;25402;42.004;23.088;2023-05-23T00:32:24;97199.09;;;11.61;47.64
39729;BME280;25402;42.004;23.088;2023-05-23T00:34:50;97198.66;;;11.58;47.41
39729;BME280;25402;42.004;23.088;2023-05-23T00:37:18;97196.16;;;11.56;47.62
39729;BME280;25402;42.004;23.088;2023-05-23T00:39:46;97198.41;;;11.53;47.63
39729;BME280;25402;42.004;23.088;2023-05-23T00:42:13;97195.69;;;11.46;47.77
39729;BME280;25402;42.004;23.088;2023-05-23T00:44:40;97182.09;;;11.33;47.85
39729;BME280;25402;42.004;23.088;2023-05-23T00:47:07;97191.84;;;11.34;47.77
39729;BME280;25402;42.004;23.088;2023-05-23T00:49:36;97216.91;;;11.42;48.24
39729;BME280;25402;42.004;23.088;2023-05-23T00:52:04;97169.66;;;11.10;48.27
39729;BME280;25402;42.004;23.088;2023-05-23T00:54:31;97210.81;;;11.34;48.67
39729;BME280;25402;42.004;23.088;2023-05-23T00:56:59;97213.28;;;11.29;48.87
39729;BME280;25402;42.004;23.088;2023-05-23T00:59:26;97220.97;;;11.25;48.96
39729;BME280;25402;42.004;23.088;2023-05-23T01:01:55;97208.03;;;11.21;48.84
39729;BME280;25402;42.004;23.088;2023-05-23T01:04:22;97204.59;;;11.05;48.96
39729;BME280;25402;42.004;23.088;2023-05-23T01:06:53;97211.09;;;11.11;48.83
39729;BME280;25402;42.004;23.088;2023-05-23T01:09:20;97205.81;;;11.03;48.95
39729;BME280;25402;42.004;23.088;2023-05-23T01:12:03;97207.09;;;11.07;49.25
39729;BME280;25402;42.004;23.088;2023-05-23T01:14:41;97206.66;;;11.03;49.13
39729;BME280;25402;42.004;23.088;2023-05-23T01:17:14;97194.84;;;10.90;49.53
39729;BME280;25402;42.004;23.088;2023-05-23T01:19:53;97212.66;;;10.99;49.29
39729;BME280;25402;42.004;23.088;2023-05-23T01:22:36;97207.41;;;10.97;49.50
39729;BME280;25402;42.004;23.088;2023-05-23T01:25:10;97204.19;;;10.87;49.72
39729;BME280;25402;42.004;23.088;2023-05-23T01:27:48;97208.16;;;10.85;49.47
39729;BME280;25402;42.004;23.088;2023-05-23T01:30:18;97199.97;;;10.78;49.77
39729;BME280;25402;42.004;23.088;2023-05-23T01:32:47;97198.03;;;10.72;50.06
39729;BME280;25402;42.004;23.088;2023-05-23T01:35:18;97199.50;;;10.68;50.25
39729;BME280;25402;42.004;23.088;2023-05-23T01:37:48;97200.31;;;10.68;50.42
39729;BME280;25402;42.004;23.088;2023-05-23T01:40:14;97197.09;;;10.58;50.50
39729;BME280;25402;42.004;23.088;2023-05-23T01:42:41;97196.72;;;10.61;50.01
39729;BME280;25402;42.004;23.088;2023-05-23T01:45:11;97194.16;;;10.53;50.22
39729;BME280;25402;42.004;23.088;2023-05-23T01:47:39;97197.81;;;10.46;50.64
39729;BME280;25402;42.004;23.088;2023-05-23T01:50:08;97203.59;;;10.42;50.46
39729;BME280;25402;42.004;23.088;2023-05-23T01:52:36;97194.84;;;10.40;50.68
39729;BME280;25402;42.004;23.088;2023-05-23T01:55:05;97197.03;;;10.30;50.41
39729;BME280;25402;42.004;23.088;2023-05-23T01:57:35;97169.22;;;10.15;50.59
39729;BME280;25402;42.004;23.088;2023-05-23T02:00:03;97196.41;;;10.28;50.47
39729;BME280;25402;42.004;23.088;2023-05-23T02:02:33;97181.53;;;10.18;50.55
39729;BME280;25402;42.004;23.088;2023-05-23T02:05:00;97204.25;;;10.23;50.64
39729;BME280;25402;42.004;23.088;2023-05-23T02:07:27;97196.91;;;10.17;50.19
39729;BME280;25402;42.004;23.088;2023-05-23T02:09:54;97189.56;;;10.11;50.14
39729;BME280;25402;42.004;23.088;2023-05-23T02:12:20;97198.97;;;10.00;50.35
39729;BME280;25402;42.004;23.088;2023-05-23T02:14:48;97210.72;;;9.93;50.83
39729;BME280;25402;42.004;23.088;2023-05-23T02:17:16;97200.41;;;9.82;51.21
39729;BME280;25402;42.004;23.088;2023-05-23T02:19:45;97200.72;;;9.72;51.68
39729;BME280;25402;42.004;23.088;2023-05-23T02:22:12;97206.88;;;9.66;52.18
39729;BME280;25402;42.004;23.088;2023-05-23T02:24:39;97199.59;;;9.66;52.24
39729;BME280;25402;42.004;23.088;2023-05-23T02:27:05;97205.09;;;9.73;52.13
39729;BME280;25402;42.004;23.088;2023-05-23T02:29:32;97206.84;;;9.81;51.54
39729;BME280;25402;42.004;23.088;2023-05-23T02:32:00;97212.53;;;9.86;50.82
39729;BME280;25402;42.004;23.088;2023-05-23T02:34:27;97206.66;;;9.82;50.94
39729;BME280;25402;42.004;23.088;2023-05-23T02:36:55;97194.03;;;9.68;50.97
39729;BME280;25402;42.004;23.088;2023-05-23T02:39:22;97206.31;;;9.70;50.98
39729;BME280;25402;42.004;23.088;2023-05-23T02:41:49;97204.00;;;9.67;50.84
39729;BME280;25402;42.004;23.088;2023-05-23T02:44:16;97179.25;;;9.49;50.63
39729;BME280;25402;42.004;23.088;2023-05-23T02:46:44;97215.53;;;9.61;50.58
39729;BME280;25402;42.004;23.088;2023-05-23T02:49:11;97216.78;;;9.59;50.93
39729;BME280;25402;42.004;23.088;2023-05-23T02:51:38;97206.91;;;9.51;50.74
39729;BME280;25402;42.004;23.088;2023-05-23T02:54:06;97206.34;;;9.56;50.93
39729;BME280;25402;42.004;23.088;2023-05-23T02:56:33;97216.38;;;9.47;51.12
39729;BME280;25402;42.004;23.088;2023-05-23T02:59:00;97217.22;;;9.48;50.98
39729;BME280;25402;42.004;23.088;2023-05-23T03:01:27;97213.25;;;9.44;51.06
39729;BME280;25402;42.004;23.088;2023-05-23T03:03:54;97192.69;;;9.28;50.91
39729;BME280;25402;42.004;23.088;2023-05-23T03:06:21;97194.59;;;9.34;51.28
39729;BME280;25402;42.004;23.088;2023-05-23T03:08:48;97198.63;;;9.38;51.09
39729;BME280;25402;42.004;23.088;2023-05-23T03:11:16;97217.22;;;9.48;51.20
39729;BME280;25402;42.004;23.088;2023-05-23T03:13:43;97215.34;;;9.48;51.23
39729;BME280;25402;42.004;23.088;2023-05-23T03:16:10;97208.41;;;9.39;51.62
39729;BME280;25402;42.004;23.088;2023-05-23T03:18:37;97201.13;;;9.40;51.41
39729;BME280;25402;42.004;23.088;2023-05-23T03:21:06;97220.41;;;9.51;51.52
39729;BME280;25402;42.004;23.088;2023-05-23T03:23:34;97209.97;;;9.48;51.71
39729;BME280;25402;42.004;23.088;2023-05-23T03:26:01;97212.22;;;9.59;51.62
39729;BME280;25402;42.004;23.088;2023-05-23T03:28:30;97214.06;;;9.59;51.29
39729;BME280;25402;42.004;23.088;2023-05-23T03:30:57;97221.16;;;9.60;50.62
39729;BME280;25402;42.004;23.088;2023-05-23T03:33:24;97223.00;;;9.59;50.74
39729;BME280;25402;42.004;23.088;2023-05-23T03:35:51;97232.22;;;9.65;50.65
39729;BME280;25402;42.004;23.088;2023-05-23T03:38:18;97230.91;;;9.76;50.96
39729;BME280;25402;42.004;23.088;2023-05-23T03:40:44;97230.41;;;10.37;50.98
39729;BME280;25402;42.004;23.088;2023-05-23T03:43:11;97234.41;;;10.91;50.17
39729;BME280;25402;42.004;23.088;2023-05-23T03:45:40;97235.69;;;11.44;49.36
39729;BME280;25402;42.004;23.088;2023-05-23T03:48:07;97218.25;;;12.01;47.16
39729;BME280;25402;42.004;23.088;2023-05-23T03:50:35;97215.03;;;12.45;46.25
39729;BME280;25402;42.004;23.088;2023-05-23T03:53:02;97228.69;;;12.98;45.24
39729;BME280;25402;42.004;23.088;2023-05-23T03:55:30;97221.50;;;13.76;43.89
39729;BME280;25402;42.004;23.088;2023-05-23T03:57:57;97216.66;;;14.36;42.20
39729;BME280;25402;42.004;23.088;2023-05-23T04:00:25;97218.09;;;15.01;40.97
39729;BME280;25402;42.004;23.088;2023-05-23T04:02:53;97224.16;;;15.71;40.39
39729;BME280;25402;42.004;23.088;2023-05-23T04:05:20;97218.72;;;16.38;39.69
39729;BME280;25402;42.004;23.088;2023-05-23T04:07:47;97213.09;;;16.92;37.61
39729;BME280;25402;42.004;23.088;2023-05-23T04:10:14;97210.66;;;17.49;36.23
39729;BME280;25402;42.004;23.088;2023-05-23T04:12:41;97224.09;;;17.86;35.18
39729;BME280;25402;42.004;23.088;2023-05-23T04:15:08;97221.13;;;18.27;34.23
39729;BME280;25402;42.004;23.088;2023-05-23T04:17:36;97235.91;;;18.66;34.06
39729;BME280;25402;42.004;23.088;2023-05-23T04:20:06;97232.75;;;19.03;33.13
39729;BME280;25402;42.004;23.088;2023-05-23T04:22:33;97232.19;;;19.34;32.54
39729;BME280;25402;42.004;23.088;2023-05-23T04:25:00;97235.69;;;19.85;31.70
39729;BME280;25402;42.004;23.088;2023-05-23T04:27:28;97242.16;;;20.34;30.37
39729;BME280;25402;42.004;23.088;2023-05-23T04:29:55;97239.97;;;20.85;29.96
39729;BME280;25402;42.004;23.088;2023-05-23T04:32:23;97237.91;;;21.24;29.42
39729;BME280;25402;42.004;23.088;2023-05-23T04:34:50;97243.47;;;21.66;28.94
39729;BME280;25402;42.004;23.088;2023-05-23T04:37:18;97236.25;;;22.02;28.28
39729;BME280;25402;42.004;23.088;2023-05-23T04:39:50;97227.06;;;22.34;27.57
39729;BME280;25402;42.004;23.088;2023-05-23T04:42:17;97241.97;;;22.53;27.09
39729;BME280;25402;42.004;23.088;2023-05-23T04:44:48;97232.69;;;22.64;27.26
39729;BME280;25402;42.004;23.088;2023-05-23T04:47:15;97237.69;;;22.87;26.34
39729;BME280;25402;42.004;23.088;2023-05-23T04:49:43;97227.78;;;23.02;26.78
39729;BME280;25402;42.004;23.088;2023-05-23T04:52:10;97247.97;;;23.17;26.53
39729;BME280;25402;42.004;23.088;2023-05-23T04:54:39;97241.09;;;23.40;25.95
39729;BME280;25402;42.004;23.088;2023-05-23T04:57:09;97232.53;;;23.52;26.22
39729;BME280;25402;42.004;23.088;2023-05-23T04:59:39;97254.88;;;23.66;25.52
39729;BME280;25402;42.004;23.088;2023-05-23T05:02:06;97248.25;;;23.87;25.44
39729;BME280;25402;42.004;23.088;2023-05-23T05:04:33;97252.91;;;23.97;25.52
39729;BME280;25402;42.004;23.088;2023-05-23T05:07:00;97250.16;;;23.97;25.58
39729;BME280;25402;42.004;23.088;2023-05-23T05:09:28;97257.56;;;24.11;25.53
39729;BME280;25402;42.004;23.088;2023-05-23T05:11:57;97240.69;;;24.13;25.54
39729;BME280;25402;42.004;23.088;2023-05-23T05:14:24;97250.34;;;24.31;25.29
39729;BME280;25402;42.004;23.088;2023-05-23T05:16:52;97259.75;;;24.35;25.56
39729;BME280;25402;42.004;23.088;2023-05-23T05:19:22;97253.09;;;24.36;25.66
39729;BME280;25402;42.004;23.088;2023-05-23T05:21:49;97240.94;;;24.32;25.43
39729;BME280;25402;42.004;23.088;2023-05-23T05:24:16;97242.59;;;24.33;25.35
39729;BME280;25402;42.004;23.088;2023-05-23T05:26:45;97247.59;;;24.25;25.33
39729;BME280;25402;42.004;23.088;2023-05-23T05:29:14;97248.69;;;24.40;25.22
39729;BME280;25402;42.004;23.088;2023-05-23T05:31:41;97244.31;;;24.23;25.09
39729;BME280;25402;42.004;23.088;2023-05-23T05:34:09;97243.78;;;24.01;25.93
39729;BME280;25402;42.004;23.088;2023-05-23T05:36:37;97245.44;;;23.97;25.93
39729;BME280;25402;42.004;23.088;2023-05-23T05:39:10;97242.38;;;24.09;25.36
39729;BME280;25402;42.004;23.088;2023-05-23T05:41:37;97247.72;;;23.70;25.80
39729;BME280;25402;42.004;23.088;2023-05-23T05:44:03;97243.84;;;23.40;25.96
39729;BME280;25402;42.004;23.088;2023-05-23T05:46:32;97243.81;;;23.15;26.26
39729;BME280;25402;42.004;23.088;2023-05-23T05:48:59;97232.47;;;22.81;27.02
39729;BME280;25402;42.004;23.088;2023-05-23T05:51:25;97239.31;;;22.68;26.71
39729;BME280;25402;42.004;23.088;2023-05-23T05:53:53;97234.06;;;22.72;26.45
39729;BME280;25402;42.004;23.088;2023-05-23T05:56:20;97246.47;;;22.64;26.71
39729;BME280;25402;42.004;23.088;2023-05-23T05:58:48;97236.09;;;22.24;27.34
39729;BME280;25402;42.004;23.088;2023-05-23T06:01:14;97235.25;;;22.24;27.32
39729;BME280;25402;42.004;23.088;2023-05-23T06:03:43;97233.66;;;22.38;27.24
39729;BME280;25402;42.004;23.088;2023-05-23T06:06:10;97238.09;;;22.44;26.88
39729;BME280;25402;42.004;23.088;2023-05-23T06:08:37;97221.03;;;22.52;26.69
39729;BME280;25402;42.004;23.088;2023-05-23T06:11:04;97228.50;;;22.57;27.19
39729;BME280;25402;42.004;23.088;2023-05-23T06:13:31;97222.78;;;22.63;26.37
39729;BME280;25402;42.004;23.088;2023-05-23T06:15:58;97215.31;;;22.64;26.62
39729;BME280;25402;42.004;23.088;2023-05-23T06:18:25;97220.56;;;22.70;26.12
39729;BME280;25402;42.004;23.088;2023-05-23T06:20:53;97218.38;;;22.72;26.08
39729;BME280;25402;42.004;23.088;2023-05-23T06:23:20;97218.41;;;22.87;25.82
39729;BME280;25402;42.004;23.088;2023-05-23T06:25:47;97223.34;;;22.85;25.96
39729;BME280;25402;42.004;23.088;2023-05-23T06:28:14;97224.50;;;23.10;26.08
39729;BME280;25402;42.004;23.088;2023-05-23T06:30:41;97217.91;;;23.16;25.73
39729;BME280;25402;42.004;23.088;2023-05-23T06:33:08;97215.16;;;23.21;25.65
39729;BME280;25402;42.004;23.088;2023-05-23T06:35:36;97222.31;;;23.22;25.49
39729;BME280;25402;42.004;23.088;2023-05-23T06:38:04;97216.81;;;23.27;25.38
39729;BME280;25402;42.004;23.088;2023-05-23T06:40:31;97218.19;;;23.30;25.33
39729;BME280;25402;42.004;23.088;2023-05-23T06:42:58;97226.72;;;23.53;25.25
39729;BME280;25402;42.004;23.088;2023-05-23T06:45:24;97202.44;;;23.40;25.16
39729;BME280;25402;42.004;23.088;2023-05-23T06:47:51;97215.94;;;23.62;25.60
39729;BME280;25402;42.004;23.088;2023-05-23T06:50:18;97212.09;;;23.58;25.24
39729;BME280;25402;42.004;23.088;2023-05-23T06:52:45;97209.88;;;23.55;25.34
39729;BME280;25402;42.004;23.088;2023-05-23T06:55:16;97203.22;;;23.66;25.57
39729;BME280;25402;42.004;23.088;2023-05-23T06:57:45;97214.03;;;23.73;25.42
39729;BME280;25402;42.004;23.088;2023-05-23T07:00:13;97199.34;;;23.82;25.51
39729;BME280;25402;42.004;23.088;2023-05-23T07:02:40;97182.50;;;23.79;25.10
39729;BME280;25402;42.004;23.088;2023-05-23T07:05:07;97199.59;;;23.96;25.26
39729;BME280;25402;42.004;23.088;2023-05-23T07:07:34;97195.72;;;24.07;25.24
39729;BME280;25402;42.004;23.088;2023-05-23T07:10:01;97193.16;;;24.21;24.72
39729;BME280;25402;42.004;23.088;2023-05-23T07:12:30;97173.28;;;24.19;24.64
39729;BME280;25402;42.004;23.088;2023-05-23T07:14:57;97192.31;;;24.31;24.76
39729;BME280;25402;42.004;23.088;2023-05-23T07:17:24;97185.59;;;24.42;24.89
39729;BME280;25402;42.004;23.088;2023-05-23T07:19:51;97173.41;;;24.53;24.58
39729;BME280;25402;42.004;23.088;2023-05-23T07:22:18;97168.94;;;24.57;24.30
39729;BME280;25402;42.004;23.088;2023-05-23T07:24:45;97161.22;;;24.54;24.43
39729;BME280;25402;42.004;23.088;2023-05-23T07:27:12;97166.16;;;24.57;24.15
39729;BME280;25402;42.004;23.088;2023-05-23T07:29:40;97162.81;;;24.65;24.40
39729;BME280;25402;42.004;23.088;2023-05-23T07:32:07;97169.38;;;24.74;23.96
39729;BME280;25402;42.004;23.088;2023-05-23T07:34:34;97153.97;;;24.63;24.40
39729;BME280;25402;42.004;23.088;2023-05-23T07:37:01;97147.59;;;24.63;23.97
39729;BME280;25402;42.004;23.088;2023-05-23T07:39:28;97145.13;;;24.61;24.01
39729;BME280;25402;42.004;23.088;2023-05-23T07:41:55;97153.38;;;24.71;24.16
39729;BME280;25402;42.004;23.088;2023-05-23T07:44:21;97150.75;;;24.46;24.08
39729;BME280;25402;42.004;23.088;2023-05-23T07:46:50;97124.84;;;24.37;24.26
39729;BME280;25402;42.004;23.088;2023-05-23T07:49:17;97155.16;;;24.52;24.49
39729;BME280;25402;42.004;23.088;2023-05-23T07:51:44;97145.78;;;24.43;24.69
39729;BME280;25402;42.004;23.088;2023-05-23T07:54:11;97131.47;;;24.36;24.76
39729;BME280;25402;42.004;23.088;2023-05-23T07:56:38;97134.81;;;24.28;25.22
39729;BME280;25402;42.004;23.088;2023-05-23T07:59:05;97127.91;;;24.30;25.30
39729;BME280;25402;42.004;23.088;2023-05-23T08:01:33;97136.47;;;24.29;24.90
39729;BME280;25402;42.004;23.088;2023-05-23T08:04:01;97130.38;;;24.32;25.26
39729;BME280;25402;42.004;23.088;2023-05-23T08:06:28;97132.03;;;24.38;25.51
39729;BME280;25402;42.004;23.088;2023-05-23T08:08:56;97125.97;;;24.31;25.41
39729;BME280;25402;42.004;23.088;2023-05-23T08:11:23;97130.94;;;24.34;25.18
39729;BME280;25402;42.004;23.088;2023-05-23T08:13:50;97130.66;;;24.35;25.35
39729;BME280;25402;42.004;23.088;2023-05-23T08:16:16;97116.06;;;24.14;25.04
39729;BME280;25402;42.004;23.088;2023-05-23T08:18:43;97127.22;;;23.94;25.42
39729;BME280;25402;42.004;23.088;2023-05-23T08:21:12;97115.34;;;23.93;25.93
39729;BME280;25402;42.004;23.088;2023-05-23T08:23:39;97105.19;;;23.69;25.48
39729;BME280;25402;42.004;23.088;2023-05-23T08:26:05;97118.50;;;23.46;25.63
39729;BME280;25402;42.004;23.088;2023-05-23T08:28:32;97120.19;;;23.37;26.31
39729;BME280;25402;42.004;23.088;2023-05-23T08:30:59;97109.72;;;23.44;26.04
39729;BME280;25402;42.004;23.088;2023-05-23T08:33:26;97094.19;;;23.58;25.76
39729;BME280;25402;42.004;23.088;2023-05-23T08:35:53;97102.16;;;23.80;25.63
39729;BME280;25402;42.004;23.088;2023-05-23T08:38:22;97102.34;;;23.94;24.96
39729;BME280;25402;42.004;23.088;2023-05-23T08:40:50;97094.63;;;23.96;24.51
39729;BME280;25402;42.004;23.088;2023-05-23T08:43:18;97079.69;;;24.02;24.58
39729;BME280;25402;42.004;23.088;2023-05-23T08:45:46;97087.63;;;24.09;24.54
39729;BME280;25402;42.004;23.088;2023-05-23T08:48:18;97086.78;;;24.18;24.48
39729;BME280;25402;42.004;23.088;2023-05-23T08:50:46;97091.91;;;23.86;24.43
39729;BME280;25402;42.004;23.088;2023-05-23T08:53:15;97089.56;;;23.39;25.14
39729;BME280;25402;42.004;23.088;2023-05-23T08:55:47;97082.28;;;23.68;24.61
39729;BME280;25402;42.004;23.088;2023-05-23T08:58:16;97085.34;;;23.72;24.26
39729;BME280;25402;42.004;23.088;2023-05-23T09:00:46;97062.03;;;23.93;24.40
39729;BME280;25402;42.004;23.088;2023-05-23T09:03:13;97067.44;;;24.23;24.31
39729;BME280;25402;42.004;23.088;2023-05-23T09:05:41;97065.63;;;24.43;24.00
39729;BME280;25402;42.004;23.088;2023-05-23T09:08:08;97063.53;;;24.64;22.83
39729;BME280;25402;42.004;23.088;2023-05-23T09:10:36;97069.50;;;24.81;22.35
39729;BME280;25402;42.004;23.088;2023-05-23T09:13:06;97053.63;;;24.91;21.88
39729;BME280;25402;42.004;23.088;2023-05-23T09:15:34;97050.44;;;25.08;22.41
39729;BME280;25402;42.004;23.088;2023-05-23T09:18:04;97054.41;;;25.26;20.77
39729;BME280;25402;42.004;23.088;2023-05-23T09:20:31;97043.72;;;25.43;20.76
39729;BME280;25402;42.004;23.088;2023-05-23T09:22:59;97031.16;;;25.51;22.46
39729;BME280;25402;42.004;23.088;2023-05-23T09:25:26;97035.38;;;25.67;21.82
39729;BME280;25402;42.004;23.088;2023-05-23T09:27:53;97035.84;;;25.79;21.95
39729;BME280;25402;42.004;23.088;2023-05-23T09:30:25;97046.28;;;26.06;22.26
39729;BME280;25402;42.004;23.088;2023-05-23T09:32:58;97036.38;;;26.19;22.02
39729;BME280;25402;42.004;23.088;2023-05-23T09:35:27;97023.44;;;26.33;20.76
39729;BME280;25402;42.004;23.088;2023-05-23T09:37:56;97016.59;;;26.25;19.62
39729;BME280;25402;42.004;23.088;2023-05-23T09:40:29;97028.81;;;26.24;19.62
39729;BME280;25402;42.004;23.088;2023-05-23T09:43:01;97027.44;;;26.27;20.37
39729;BME280;25402;42.004;23.088;2023-05-23T09:45:31;97009.81;;;26.37;20.38
39729;BME280;25402;42.004;23.088;2023-05-23T09:47:58;97022.22;;;26.58;20.14
39729;BME280;25402;42.004;23.088;2023-05-23T09:50:30;97014.25;;;26.70;20.32
39729;BME280;25402;42.004;23.088;2023-05-23T09:52:57;97006.88;;;26.79;19.92
39729;BME280;25402;42.004;23.088;2023-05-23T09:55:25;97005.00;;;26.75;20.00
39729;BME280;25402;42.004;23.088;2023-05-23T09:57:53;97006.19;;;26.55;20.12
39729;BME280;25402;42.004;23.088;2023-05-23T10:00:25;97000.66;;;26.36;19.32
39729;BME280;25402;42.004;23.088;2023-05-23T10:02:58;97007.59;;;26.15;19.34
39729;BME280;25402;42.004;23.088;2023-05-23T10:05:32;96980.88;;;25.86;19.12
39729;BME280;25402;42.004;23.088;2023-05-23T10:08:01;96995.19;;;26.31;20.04
39729;BME280;25402;42.004;23.088;2023-05-23T10:10:30;97001.19;;;26.71;19.93
39729;BME280;25402;42.004;23.088;2023-05-23T10:13:01;97011.69;;;27.06;19.60
39729;BME280;25402;42.004;23.088;2023-05-23T10:15:34;96997.13;;;27.28;18.16
39729;BME280;25402;42.004;23.088;2023-05-23T10:18:09;96994.16;;;27.38;17.92
39729;BME280;25402;42.004;23.088;2023-05-23T10:20:39;96992.50;;;27.37;18.23
39729;BME280;25402;42.004;23.088;2023-05-23T10:23:09;96991.75;;;27.59;17.59
39729;BME280;25402;42.004;23.088;2023-05-23T10:25:37;96991.25;;;27.43;16.26
39729;BME280;25402;42.004;23.088;2023-05-23T10:28:06;96968.13;;;27.34;15.64
39729;BME280;25402;42.004;23.088;2023-05-23T10:30:33;96960.59;;;27.21;15.35
39729;BME280;25402;42.004;23.088;2023-05-23T10:33:01;96988.78;;;27.55;14.58
39729;BME280;25402;42.004;23.088;2023-05-23T10:35:40;96976.91;;;27.09;14.78
39729;BME280;25402;42.004;23.088;2023-05-23T10:38:16;96969.75;;;27.21;15.21
39729;BME280;25402;42.004;23.088;2023-05-23T10:40:54;96978.03;;;26.61;15.88
39729;BME280;25402;42.004;23.088;2023-05-23T10:43:27;96969.56;;;26.39;15.41
39729;BME280;25402;42.004;23.088;2023-05-23T10:45:55;96954.56;;;26.21;15.45
39729;BME280;25402;42.004;23.088;2023-05-23T10:48:31;96963.34;;;25.91;15.29
39729;BME280;25402;42.004;23.088;2023-05-23T10:51:05;96956.88;;;26.14;14.90
39729;BME280;25402;42.004;23.088;2023-05-23T10:53:34;96965.25;;;25.95;14.70
39729;BME280;25402;42.004;23.088;2023-05-23T10:56:04;96951.09;;;25.78;14.81
39729;BME280;25402;42.004;23.088;2023-05-23T10:58:32;96941.94;;;25.78;15.29
39729;BME280;25402;42.004;23.088;2023-05-23T11:01:00;96949.38;;;25.58;15.15
39729;BME280;25402;42.004;23.088;2023-05-23T11:03:35;96936.53;;;25.86;15.50
39729;BME280;25402;42.004;23.088;2023-05-23T11:06:04;96933.16;;;26.08;14.76
39729;BME280;25402;42.004;23.088;2023-05-23T11:08:38;96946.44;;;26.11;14.58
39729;BME280;25402;42.004;23.088;2023-05-23T11:11:07;96943.28;;;26.50;14.68
39729;BME280;25402;42.004;23.088;2023-05-23T11:13:56;96950.94;;;27.05;14.00
39729;BME280;25402;42.004;23.088;2023-05-23T11:16:29;96932.50;;;27.09;14.93
39729;BME280;25402;42.004;23.088;2023-05-23T11:19:22;96938.88;;;26.95;13.69
39729;BME280;25402;42.004;23.088;2023-05-23T11:21:54;96939.69;;;26.82;13.41
39729;BME280;25402;42.004;23.088;2023-05-23T11:24:22;96931.78;;;26.24;14.21
39729;BME280;25402;42.004;23.088;2023-05-23T11:26:53;96943.47;;;26.40;13.91
39729;BME280;25402;42.004;23.088;2023-05-23T11:29:25;96933.03;;;26.51;14.48
39729;BME280;25402;42.004;23.088;2023-05-23T11:31:53;96937.72;;;26.37;13.96
39729;BME280;25402;42.004;23.088;2023-05-23T11:34:21;96930.22;;;26.18;14.80
39729;BME280;25402;42.004;23.088;2023-05-23T11:36:53;96932.81;;;26.61;14.08
39729;BME280;25402;42.004;23.088;2023-05-23T11:39:20;96919.06;;;26.23;13.25
39729;BME280;25402;42.004;23.088;2023-05-23T11:41:57;96926.72;;;25.75;14.22
39729;BME280;25402;42.004;23.088;2023-05-23T11:44:24;96921.69;;;25.58;14.38
39729;BME280;25402;42.004;23.088;2023-05-23T11:47:01;96924.16;;;25.60;15.08
39729;BME280;25402;42.004;23.088;2023-05-23T11:49:29;96915.72;;;25.04;13.95
39729;BME280;25402;42.004;23.088;2023-05-23T11:51:58;96907.63;;;24.59;14.30
39729;BME280;25402;42.004;23.088;2023-05-23T11:54:27;96900.63;;;24.67;14.92
39729;BME280;25402;42.004;23.088;2023-05-23T11:56:54;96916.31;;;24.77;14.89
39729;BME280;25402;42.004;23.088;2023-05-23T11:59:22;96917.97;;;24.49;14.73
39729;BME280;25402;42.004;23.088;2023-05-23T12:01:50;96926.19;;;24.25;14.47
39729;BME280;25402;42.004;23.088;2023-05-23T12:04:17;96916.19;;;24.29;14.54
39729;BME280;25402;42.004;23.088;2023-05-23T12:06:47;96906.38;;;24.13;14.57
39729;BME280;25402;42.004;23.088;2023-05-23T12:09:15;96912.47;;;24.10;15.27
39729;BME280;25402;42.004;23.088;2023-05-23T12:11:43;96896.59;;;24.25;15.33
39729;BME280;25402;42.004;23.088;2023-05-23T12:14:14;96895.84;;;24.49;14.04
39729;BME280;25402;42.004;23.088;2023-05-23T12:16:42;96897.97;;;24.86;14.08
39729;BME280;25402;42.004;23.088;2023-05-23T12:19:10;96894.94;;;25.30;14.39
39729;BME280;25402;42.004;23.088;2023-05-23T12:21:45;96893.75;;;25.74;13.56
39729;BME280;25402;42.004;23.088;2023-05-23T12:24:16;96888.25;;;25.92;12.65
39729;BME280;25402;42.004;23.088;2023-05-23T12:26:48;96886.28;;;26.12;12.38
39729;BME280;25402;42.004;23.088;2023-05-23T12:29:20;96887.69;;;25.72;13.08
39729;BME280;25402;42.004;23.088;2023-05-23T12:31:49;96883.19;;;25.38;13.46
39729;BME280;25402;42.004;23.088;2023-05-23T12:34:18;96878.03;;;25.50;13.32
39729;BME280;25402;42.004;23.088;2023-05-23T12:36:46;96875.94;;;25.98;13.19
39729;BME280;25402;42.004;23.088;2023-05-23T12:39:15;96842.28;;;25.91;13.65
39729;BME280;25402;42.004;23.088;2023-05-23T12:41:49;96868.94;;;26.20;13.71
39729;BME280;25402;42.004;23.088;2023-05-23T12:44:16;96866.66;;;26.41;13.60
39729;BME280;25402;42.004;23.088;2023-05-23T12:46:43;96858.56;;;26.58;13.43
39729;BME280;25402;42.004;23.088;2023-05-23T12:49:10;96851.19;;;26.67;12.78
39729;BME280;25402;42.004;23.088;2023-05-23T12:51:37;96849.06;;;26.31;13.45
39729;BME280;25402;42.004;23.088;2023-05-23T12:54:04;96848.19;;;26.50;13.52
39729;BME280;25402;42.004;23.088;2023-05-23T12:56:32;96833.06;;;26.28;13.96